Time;durP1;ratioP1;P1;durP2;ratioP2;P2;SDS_P1;SDS_P2;PMS_P1;PMS_P2;Temp;Humidity;BMP_temperature;BMP_pressure;BME280_temperature;BME280_humidity;BME280_pressure;Samples;Min_cycle;Max_cycle;Signal;HPM_P1;HPM_P2
2021/01/09 00:00:33;;;;;;;19.20;17.40;;;1.40;99.90;;;;;;6095699;23;20802;-78
2021/01/09 00:02:59;;;;;;;19.97;18.07;;;1.40;99.90;;;;;;6097298;23;20388;-78
2021/01/09 00:05:27;;;;;;;18.70;17.00;;;1.40;99.90;;;;;;6097148;23;20426;-78
2021/01/09 00:07:53;;;;;;;20.80;18.70;;;1.30;99.90;;;;;;6095467;23;20441;-78
2021/01/09 00:10:19;;;;;;;21.00;19.00;;;1.30;99.90;;;;;;6095521;23;20423;-79
2021/01/09 00:12:46;;;;;;;20.03;18.03;;;1.30;99.90;;;;;;6095613;23;20419;-79
2021/01/09 00:15:13;;;;;;;19.93;17.93;;;1.30;99.90;;;;;;6094834;23;20439;-78
2021/01/09 00:17:39;;;;;;;21.23;19.03;;;1.40;99.90;;;;;;6096667;23;20980;-79
2021/01/09 00:20:07;;;;;;;20.27;18.40;;;1.40;99.90;;;;;;6096637;23;20912;-79
2021/01/09 00:22:34;;;;;;;19.90;18.03;;;1.40;99.90;;;;;;6096675;23;20390;-79
2021/01/09 00:25:01;;;;;;;19.03;17.33;;;1.40;99.90;;;;;;6096862;23;20387;-78
2021/01/09 00:27:27;;;;;;;19.03;17.33;;;1.30;99.90;;;;;;6095303;23;20447;-78
2021/01/09 00:29:53;;;;;;;20.97;18.87;;;1.30;99.90;;;;;;6095093;23;20769;-80
2021/01/09 00:32:20;;;;;;;21.27;18.93;;;1.20;99.90;;;;;;6096234;23;20439;-78
2021/01/09 00:34:46;;;;;;;20.00;18.03;;;1.30;99.90;;;;;;6095225;23;20446;-79
2021/01/09 00:37:12;;;;;;;21.47;19.23;;;1.20;99.90;;;;;;6095516;23;20414;-79
2021/01/09 00:39:39;;;;;;;21.23;19.13;;;1.20;99.90;;;;;;6095755;23;20423;-78
2021/01/09 00:42:06;;;;;;;19.90;17.90;;;1.20;99.90;;;;;;6096966;23;20397;-78
2021/01/09 00:44:32;;;;;;;20.47;18.33;;;1.20;99.90;;;;;;6095053;23;20927;-79
2021/01/09 00:46:59;;;;;;;20.00;18.10;;;1.20;99.90;;;;;;6094859;23;20469;-78
2021/01/09 00:49:26;;;;;;;19.77;17.77;;;1.20;99.90;;;;;;6096115;23;20406;-78
2021/01/09 00:51:52;;;;;;;19.33;17.50;;;1.20;99.90;;;;;;6094612;23;20742;-78
2021/01/09 00:54:19;;;;;;;20.57;18.50;;;1.20;99.90;;;;;;6096262;23;20394;-78
2021/01/09 00:56:51;;;;;;;20.03;18.07;;;1.20;99.90;;;;;;6094643;23;20418;-78
2021/01/09 00:59:18;;;;;;;21.67;19.37;;;1.20;99.90;;;;;;6094367;23;20770;-78
2021/01/09 01:01:45;;;;;;;19.93;17.97;;;1.20;99.90;;;;;;6096465;23;20378;-79
2021/01/09 01:04:11;;;;;;;20.10;18.10;;;1.20;99.90;;;;;;6096426;23;20394;-77
2021/01/09 01:06:37;;;;;;;19.50;17.80;;;1.20;99.90;;;;;;6096275;23;20386;-78
2021/01/09 01:09:04;;;;;;;20.20;18.40;;;1.20;99.90;;;;;;6094784;23;20448;-78
2021/01/09 01:11:31;;;;;;;20.30;18.37;;;1.20;99.90;;;;;;6094980;23;20427;-79
2021/01/09 01:13:59;;;;;;;19.83;18.13;;;1.10;99.90;;;;;;6095885;23;20458;-79
2021/01/09 01:16:26;;;;;;;19.67;17.87;;;1.20;99.90;;;;;;6095978;23;20442;-79
2021/01/09 01:18:52;;;;;;;19.17;17.37;;;1.20;99.90;;;;;;6094768;23;20457;-78
2021/01/09 01:21:19;;;;;;;19.70;17.80;;;1.20;99.90;;;;;;6096397;23;20394;-79
2021/01/09 01:23:45;;;;;;;20.37;18.47;;;1.20;99.90;;;;;;6096255;23;20386;-79
2021/01/09 01:26:12;;;;;;;20.63;18.60;;;1.10;99.90;;;;;;6096152;23;20399;-78
2021/01/09 01:28:39;;;;;;;19.50;17.73;;;1.10;99.90;;;;;;6094254;23;20444;-79
2021/01/09 01:31:07;;;;;;;19.77;17.93;;;1.10;99.90;;;;;;6096308;23;20395;-78
2021/01/09 01:33:34;;;;;;;18.97;17.27;;;1.10;99.90;;;;;;6094663;23;20410;-78
2021/01/09 01:36:00;;;;;;;19.87;17.97;;;1.20;99.90;;;;;;6096115;23;20462;-79
2021/01/09 01:38:27;;;;;;;19.67;17.97;;;1.20;99.90;;;;;;6094412;23;20749;-78
2021/01/09 01:41:00;;;;;;;20.43;18.53;;;1.20;99.90;;;;;;6096219;23;20393;-79
2021/01/09 01:43:26;;;;;;;20.17;18.30;;;1.20;99.90;;;;;;6096198;23;20839;-79
2021/01/09 01:45:53;;;;;;;20.10;18.30;;;1.10;99.90;;;;;;6094596;23;20469;-78
2021/01/09 01:48:20;;;;;;;20.00;18.10;;;1.10;99.90;;;;;;6095871;23;20466;-78
2021/01/09 01:50:47;;;;;;;21.30;19.20;;;1.10;99.90;;;;;;6096065;23;20419;-78
2021/01/09 01:53:13;;;;;;;20.23;18.33;;;1.10;99.90;;;;;;6094593;23;20757;-78
2021/01/09 01:55:39;;;;;;;20.47;18.60;;;1.10;99.90;;;;;;6095820;23;20430;-79
2021/01/09 01:58:06;;;;;;;19.10;17.40;;;1.20;99.90;;;;;;6095823;23;20414;-78
2021/01/09 02:00:32;;;;;;;20.33;18.37;;;1.20;99.90;;;;;;6095710;23;20395;-79
2021/01/09 02:02:59;;;;;;;19.37;17.57;;;1.10;99.90;;;;;;6094462;23;20424;-78
2021/01/09 02:05:29;;;;;;;20.27;18.37;;;1.10;99.90;;;;;;6095777;23;20461;-79
2021/01/09 02:07:59;;;;;;;19.27;17.47;;;1.10;99.90;;;;;;6095530;23;20419;-78
2021/01/09 02:10:26;;;;;;;20.23;18.43;;;1.10;99.90;;;;;;6096541;23;20381;-78
2021/01/09 02:13:02;;;;;;;19.30;17.60;;;1.20;99.90;;;;;;6095861;23;20418;-78
2021/01/09 02:15:30;;;;;;;20.60;18.47;;;1.10;99.90;;;;;;6094806;23;20433;-78
2021/01/09 02:17:58;;;;;;;20.17;18.37;;;1.10;99.90;;;;;;6094240;23;20750;-78
2021/01/09 02:20:28;;;;;;;20.03;18.03;;;1.10;99.90;;;;;;6094406;23;20422;-78
2021/01/09 02:22:56;;;;;;;19.60;17.80;;;1.10;99.90;;;;;;6094635;23;20463;-79
2021/01/09 02:25:22;;;;;;;20.63;18.60;;;1.10;99.90;;;;;;6095642;23;20414;-78
2021/01/09 02:27:49;;;;;;;20.23;18.27;;;1.10;99.90;;;;;;6095952;23;20445;-79
2021/01/09 02:30:19;;;;;;;19.93;18.23;;;1.10;99.90;;;;;;6094337;23;20421;-79
2021/01/09 02:32:51;;;;;;;18.53;16.93;;;1.10;99.90;;;;;;6094493;23;20422;-79
2021/01/09 02:35:20;;;;;;;19.13;17.27;;;1.10;99.90;;;;;;6094111;23;20429;-78
2021/01/09 02:37:47;;;;;;;18.80;17.20;;;1.20;99.90;;;;;;6095782;23;20417;-78
2021/01/09 02:40:16;;;;;;;19.77;17.97;;;1.20;99.90;;;;;;6095285;23;20433;-79
2021/01/09 02:42:43;;;;;;;18.83;17.03;;;1.20;99.90;;;;;;6096224;23;20410;-78
2021/01/09 02:45:09;;;;;;;18.20;16.63;;;1.20;99.90;;;;;;6096001;23;20798;-78
2021/01/09 02:47:36;;;;;;;18.87;17.27;;;1.10;99.90;;;;;;6095819;23;20800;-78
2021/01/09 02:50:03;;;;;;;20.57;18.40;;;1.10;99.90;;;;;;6096065;23;20418;-78
2021/01/09 02:52:29;;;;;;;19.93;17.93;;;1.10;99.90;;;;;;6097463;23;20760;-78
2021/01/09 02:54:56;;;;;;;18.70;17.07;;;1.10;99.90;;;;;;6097318;23;20489;-78
2021/01/09 02:57:23;;;;;;;19.67;17.77;;;1.10;99.90;;;;;;6096052;23;20755;-78
2021/01/09 02:59:49;;;;;;;21.10;19.00;;;1.10;99.90;;;;;;6095751;23;20418;-78
2021/01/09 03:02:16;;;;;;;20.17;18.17;;;1.10;99.90;;;;;;6095501;23;20430;-78
2021/01/09 03:04:42;;;;;;;19.87;17.97;;;1.10;99.90;;;;;;6095658;23;20412;-78
2021/01/09 03:07:08;;;;;;;19.03;17.27;;;1.10;99.90;;;;;;6096845;23;20394;-79
2021/01/09 03:09:35;;;;;;;19.57;17.57;;;1.20;99.90;;;;;;6095628;23;20411;-79
2021/01/09 03:12:01;;;;;;;18.40;16.80;;;1.20;99.90;;;;;;6095714;23;20422;-78
2021/01/09 03:14:28;;;;;;;19.63;17.73;;;1.10;99.90;;;;;;6095895;23;20406;-78
2021/01/09 03:16:54;;;;;;;20.23;18.43;;;1.10;99.90;;;;;;6094530;23;20422;-78
2021/01/09 03:19:20;;;;;;;20.53;18.73;;;1.10;99.90;;;;;;6095154;23;20444;-79
2021/01/09 03:21:47;;;;;;;20.00;18.10;;;1.10;99.90;;;;;;6095784;23;20426;-79
2021/01/09 03:24:13;;;;;;;19.43;17.57;;;1.10;99.90;;;;;;6097111;23;20727;-78
2021/01/09 03:26:39;;;;;;;19.50;17.70;;;1.20;99.90;;;;;;6097042;23;20383;-79
2021/01/09 03:29:06;;;;;;;21.27;19.07;;;1.20;99.90;;;;;;6095145;23;20759;-78
2021/01/09 03:31:33;;;;;;;20.00;18.30;;;1.20;99.90;;;;;;6096832;23;20446;-78
2021/01/09 03:33:59;;;;;;;20.60;18.70;;;1.20;99.90;;;;;;6096934;23;20955;-79
2021/01/09 03:36:26;;;;;;;20.53;18.57;;;1.10;99.90;;;;;;6095316;23;20497;-78
2021/01/09 03:38:52;;;;;;;19.53;17.77;;;1.10;99.90;;;;;;6096921;23;20464;-79
2021/01/09 03:41:18;;;;;;;19.43;17.70;;;1.10;99.90;;;;;;6097833;23;20395;-77
2021/01/09 03:43:45;;;;;;;19.97;18.17;;;1.10;99.90;;;;;;6094945;23;20749;-75
2021/01/09 03:46:11;;;;;;;18.50;16.80;;;1.10;99.90;;;;;;6094626;23;20444;-75
2021/01/09 03:48:38;;;;;;;20.60;18.70;;;1.10;99.90;;;;;;6094240;23;20929;-77
2021/01/09 03:51:04;;;;;;;20.97;18.37;;;1.10;99.90;;;;;;6095883;23;20494;-76
2021/01/09 03:53:31;;;;;;;20.90;18.77;;;1.10;99.90;;;;;;6094544;23;20412;-77
2021/01/09 03:55:57;;;;;;;21.00;18.97;;;1.10;99.90;;;;;;6095509;23;20430;-78
2021/01/09 03:58:24;;;;;;;19.73;18.00;;;1.10;99.90;;;;;;6088276;23;20465;-77
2021/01/09 04:00:50;;;;;;;18.90;17.27;;;1.10;99.90;;;;;;6094235;23;20493;-77
2021/01/09 04:03:16;;;;;;;18.50;16.97;;;1.10;99.90;;;;;;6094195;23;20391;-76
2021/01/09 04:05:43;;;;;;;18.00;16.47;;;1.10;99.90;;;;;;6093082;23;20775;-77
2021/01/09 04:08:10;;;;;;;19.10;17.30;;;1.10;99.90;;;;;;6092942;23;20422;-78
2021/01/09 04:10:37;;;;;;;20.20;18.23;;;1.10;99.90;;;;;;6096870;23;20489;-76
2021/01/09 04:13:03;;;;;;;19.17;17.20;;;1.10;99.90;;;;;;6095223;23;20394;-75
2021/01/09 04:15:29;;;;;;;20.30;18.47;;;1.10;99.90;;;;;;6095923;23;20482;-76
2021/01/09 04:17:56;;;;;;;21.10;19.10;;;1.10;99.90;;;;;;6095606;23;20417;-75
2021/01/09 04:20:22;;;;;;;22.03;19.80;;;1.10;99.90;;;;;;6095631;23;20417;-76
2021/01/09 04:22:49;;;;;;;21.17;19.27;;;1.10;99.90;;;;;;6096031;23;20441;-77
2021/01/09 04:25:16;;;;;;;21.57;19.53;;;1.10;99.90;;;;;;6095949;23;20391;-78
2021/01/09 04:27:42;;;;;;;19.93;18.03;;;1.10;99.90;;;;;;6094178;23;20442;-83
2021/01/09 04:30:09;;;;;;;19.30;17.60;;;1.10;99.90;;;;;;6095319;23;20401;-77
2021/01/09 04:32:35;;;;;;;19.47;17.80;;;1.20;99.90;;;;;;6095371;23;20446;-76
2021/01/09 04:35:02;;;;;;;20.07;18.30;;;1.20;99.90;;;;;;6093548;23;20446;-76
2021/01/09 04:37:28;;;;;;;20.87;18.77;;;1.20;99.90;;;;;;6093114;23;20433;-76
2021/01/09 04:39:56;;;;;;;20.13;18.43;;;1.20;99.90;;;;;;6094707;23;20391;-77
2021/01/09 04:42:22;;;;;;;20.23;18.33;;;1.20;99.90;;;;;;6095222;23;20778;-77
2021/01/09 04:44:48;;;;;;;19.33;17.63;;;1.20;99.90;;;;;;6095960;23;20391;-77
2021/01/09 04:47:15;;;;;;;20.37;18.57;;;1.20;99.90;;;;;;6094093;23;20486;-77
2021/01/09 04:49:42;;;;;;;20.53;18.63;;;1.20;99.90;;;;;;6093870;23;20421;-77
2021/01/09 04:52:10;;;;;;;21.73;19.73;;;1.20;99.90;;;;;;6094018;23;20415;-77
2021/01/09 04:54:39;;;;;;;19.73;17.93;;;1.20;99.90;;;;;;6095373;23;20397;-77
2021/01/09 04:57:06;;;;;;;21.23;19.30;;;1.20;99.90;;;;;;6093638;23;20418;-77
2021/01/09 04:59:34;;;;;;;21.43;19.27;;;1.10;99.90;;;;;;6095433;23;20400;-77
2021/01/09 05:02:01;;;;;;;20.83;18.80;;;1.10;99.90;;;;;;6095282;23;20887;-77
2021/01/09 05:04:28;;;;;;;20.67;18.73;;;1.10;99.90;;;;;;6093857;23;20894;-77
2021/01/09 05:06:54;;;;;;;21.77;19.73;;;1.10;99.90;;;;;;6095056;23;20396;-77
2021/01/09 05:09:20;;;;;;;20.90;19.00;;;1.10;99.90;;;;;;6092808;23;20449;-76
2021/01/09 05:11:47;;;;;;;20.77;18.87;;;1.10;99.90;;;;;;6093802;23;20475;-76
2021/01/09 05:14:14;;;;;;;21.40;19.27;;;1.00;99.90;;;;;;6093709;23;20445;-77
2021/01/09 05:16:41;;;;;;;20.50;18.67;;;1.10;99.90;;;;;;6093779;23;20445;-77
2021/01/09 05:19:08;;;;;;;19.73;18.00;;;1.10;99.90;;;;;;6093383;23;20458;-77
2021/01/09 05:21:36;;;;;;;21.87;19.83;;;1.10;99.90;;;;;;6093826;23;20417;-77
2021/01/09 05:24:07;;;;;;;20.90;18.80;;;1.10;99.90;;;;;;6095390;23;20398;-77
2021/01/09 05:26:34;;;;;;;22.03;20.13;;;1.00;99.90;;;;;;6094267;23;20405;-77
2021/01/09 05:29:03;;;;;;;21.10;19.00;;;1.00;99.90;;;;;;6095148;23;20757;-77
2021/01/09 05:31:35;;;;;;;20.77;18.77;;;1.00;99.90;;;;;;6094428;23;20420;-76
2021/01/09 05:34:02;;;;;;;22.27;19.97;;;1.00;99.90;;;;;;6094124;23;20402;-77
2021/01/09 05:36:28;;;;;;;22.17;20.00;;;1.00;99.90;;;;;;6093531;23;20443;-77
2021/01/09 05:38:54;;;;;;;21.10;19.30;;;1.00;99.90;;;;;;6094945;23;20478;-77
2021/01/09 05:41:22;;;;;;;21.20;19.30;;;1.00;99.90;;;;;;6093850;23;20410;-77
2021/01/09 05:43:58;;;;;;;21.47;19.37;;;1.00;99.90;;;;;;6094019;23;20409;-77
2021/01/09 05:46:25;;;;;;;21.13;19.00;;;1.00;99.90;;;;;;6095500;23;20386;-77
2021/01/09 05:48:54;;;;;;;22.23;20.20;;;1.00;99.90;;;;;;6093316;23;20434;-77
2021/01/09 05:51:22;;;;;;;21.00;18.90;;;1.00;99.90;;;;;;6093897;23;20893;-77
2021/01/09 05:53:49;;;;;;;19.17;17.37;;;1.00;99.90;;;;;;6093059;23;20418;-77
2021/01/09 05:56:17;;;;;;;19.30;17.60;;;1.00;99.90;;;;;;6093646;23;20807;-77
2021/01/09 05:58:44;;;;;;;19.77;18.07;;;1.00;99.90;;;;;;6094803;23;20410;-77
2021/01/09 06:01:13;;;;;;;20.27;18.17;;;1.00;99.90;;;;;;6094965;23;20394;-77
2021/01/09 06:03:44;;;;;;;22.07;19.83;;;1.00;99.90;;;;;;6093567;23;20441;-77
2021/01/09 06:06:43;;;;;;;20.60;18.50;;;1.00;99.90;;;;;;6095493;23;20379;-77
2021/01/09 06:09:10;;;;;;;20.40;18.33;;;1.00;99.90;;;;;;6094998;23;20473;-78
2021/01/09 06:11:39;;;;;;;21.17;19.17;;;0.90;99.90;;;;;;6093694;23;20426;-77
2021/01/09 06:14:08;;;;;;;20.57;18.43;;;0.90;99.90;;;;;;6094430;23;20425;-77
2021/01/09 06:16:37;;;;;;;21.37;19.40;;;0.90;99.90;;;;;;6097076;23;20442;-78
2021/01/09 06:19:04;;;;;;;21.13;19.27;;;0.90;99.90;;;;;;6096671;23;20757;-77
2021/01/09 06:21:33;;;;;;;21.03;19.10;;;0.80;99.90;;;;;;6096969;23;20890;-77
2021/01/09 06:24:01;;;;;;;22.53;19.97;;;0.80;99.90;;;;;;6095351;23;20419;-77
2021/01/09 06:26:29;;;;;;;22.17;20.10;;;0.80;99.90;;;;;;6096495;23;20391;-77
2021/01/09 06:28:58;;;;;;;22.07;20.07;;;0.90;99.90;;;;;;6096686;23;20410;-77
2021/01/09 06:31:26;;;;;;;22.00;19.80;;;0.90;99.90;;;;;;6095036;23;20464;-77
2021/01/09 06:33:54;;;;;;;20.63;18.73;;;0.90;99.90;;;;;;6096964;23;20387;-77
2021/01/09 06:36:23;;;;;;;21.87;19.87;;;0.90;99.90;;;;;;6095076;23;20452;-77
2021/01/09 06:38:52;;;;;;;20.77;18.83;;;0.90;99.90;;;;;;6094676;23;20440;-77
2021/01/09 06:41:20;;;;;;;20.60;18.63;;;0.90;99.90;;;;;;6095432;23;20510;-77
2021/01/09 06:43:48;;;;;;;20.80;18.83;;;0.90;99.90;;;;;;6096818;23;20413;-77
2021/01/09 06:46:26;;;;;;;22.23;20.10;;;0.90;99.90;;;;;;6095067;23;20466;-77
2021/01/09 06:48:53;;;;;;;22.90;20.40;;;0.80;99.90;;;;;;6096554;23;20437;-77
2021/01/09 06:51:44;;;;;;;21.63;19.60;;;0.80;99.90;;;;;;6096121;23;20394;-77
2021/01/09 06:54:44;;;;;;;22.10;19.83;;;0.80;99.90;;;;;;6060725;23;20473;-76
2021/01/09 06:57:16;;;;;;;23.30;21.00;;;0.80;99.90;;;;;;6096825;23;20381;-77
2021/01/09 06:59:43;;;;;;;23.97;21.67;;;0.70;99.90;;;;;;6094719;23;20434;-77
2021/01/09 07:02:21;;;;;;;21.50;19.50;;;0.80;99.90;;;;;;6096672;23;20391;-77
2021/01/09 07:05:01;;;;;;;21.40;19.43;;;0.80;99.90;;;;;;6096835;23;20393;-77
2021/01/09 07:07:29;;;;;;;21.70;19.53;;;0.80;99.90;;;;;;6095005;23;20449;-77
2021/01/09 07:10:14;;;;;;;21.20;19.30;;;0.80;99.90;;;;;;6095301;23;20402;-77
2021/01/09 07:12:42;;;;;;;22.37;20.27;;;0.80;99.90;;;;;;6096849;23;20736;-77
2021/01/09 07:15:10;;;;;;;22.00;20.10;;;0.80;99.90;;;;;;6095053;23;20438;-77
2021/01/09 07:17:38;;;;;;;21.40;19.40;;;0.80;99.90;;;;;;6096685;23;20414;-78
2021/01/09 07:20:09;;;;;;;22.83;20.63;;;0.90;99.90;;;;;;6097089;23;20391;-77
2021/01/09 07:22:39;;;;;;;21.23;19.33;;;0.80;99.90;;;;;;6094870;23;20414;-77
2021/01/09 07:25:08;;;;;;;21.27;19.37;;;0.90;99.90;;;;;;6096811;23;20453;-77
2021/01/09 07:27:41;;;;;;;22.60;20.23;;;0.90;99.90;;;;;;6095412;23;20466;-78
2021/01/09 07:30:11;;;;;;;23.53;21.03;;;0.90;99.90;;;;;;6096318;23;20382;-77
2021/01/09 07:32:41;;;;;;;22.47;20.37;;;0.90;99.90;;;;;;6096804;23;20406;-77
2021/01/09 07:35:09;;;;;;;22.27;20.07;;;0.90;99.90;;;;;;6095134;23;20468;-78
2021/01/09 07:37:39;;;;;;;22.87;20.63;;;0.90;99.90;;;;;;6095337;23;20466;-77
2021/01/09 07:40:13;;;;;;;22.60;20.30;;;0.90;99.90;;;;;;6094641;23;20517;-77
2021/01/09 07:42:40;;;;;;;22.53;20.33;;;0.90;99.90;;;;;;6096518;23;20386;-77
2021/01/09 07:45:08;;;;;;;22.90;20.80;;;1.00;99.90;;;;;;6096228;23;20727;-77
2021/01/09 07:47:39;;;;;;;22.23;20.20;;;1.00;99.90;;;;;;6094710;23;20430;-77
2021/01/09 07:50:06;;;;;;;20.93;18.93;;;1.10;99.90;;;;;;6094456;23;20420;-77
2021/01/09 07:52:34;;;;;;;21.30;19.37;;;1.10;99.90;;;;;;6094823;23;20457;-78
2021/01/09 07:55:00;;;;;;;22.40;20.20;;;1.10;99.90;;;;;;6096016;23;20395;-77
2021/01/09 07:57:28;;;;;;;21.83;19.53;;;1.10;99.90;;;;;;6096092;23;20417;-78
2021/01/09 08:00:06;;;;;;;22.57;20.43;;;1.10;99.90;;;;;;6094448;23;20429;-77
2021/01/09 08:02:34;;;;;;;22.60;20.40;;;1.20;99.90;;;;;;6094770;23;20398;-78
2021/01/09 08:05:06;;;;;;;22.30;20.00;;;1.20;99.90;;;;;;6094707;23;20425;-77
2021/01/09 08:07:34;;;;;;;21.07;19.17;;;1.30;99.90;;;;;;6094118;23;20450;-77
2021/01/09 08:10:15;;;;;;;21.47;19.33;;;1.40;99.90;;;;;;6094323;23;20818;-77
2021/01/09 08:12:42;;;;;;;21.13;19.30;;;1.50;99.90;;;;;;6094387;23;20423;-76
2021/01/09 08:15:09;;;;;;;21.37;19.37;;;1.70;99.90;;;;;;6095854;23;20466;-75
2021/01/09 08:17:35;;;;;;;22.13;20.17;;;1.90;99.90;;;;;;6094689;23;20437;-76
2021/01/09 08:20:10;;;;;;;21.33;19.33;;;2.00;99.90;;;;;;6095668;23;20394;-75
2021/01/09 08:22:37;;;;;;;20.43;18.43;;;2.20;99.90;;;;;;6094179;23;20409;-75
2021/01/09 08:25:08;;;;;;;20.57;18.67;;;2.50;99.90;;;;;;6095364;23;20422;-75
2021/01/09 08:27:40;;;;;;;20.43;18.43;;;2.60;99.90;;;;;;6095338;23;20802;-76
2021/01/09 08:30:10;;;;;;;19.30;17.40;;;2.40;99.90;;;;;;6094119;23;20410;-77
2021/01/09 08:32:36;;;;;;;19.70;17.77;;;2.40;99.90;;;;;;6093554;23;20414;-76
2021/01/09 08:35:02;;;;;;;20.20;18.43;;;2.30;99.90;;;;;;6095952;23;20395;-77
2021/01/09 08:37:29;;;;;;;18.77;17.00;;;2.20;99.90;;;;;;6093424;23;20441;-77
2021/01/09 08:39:56;;;;;;;20.80;18.70;;;2.20;99.90;;;;;;6095344;23;20431;-77
2021/01/09 08:42:23;;;;;;;21.27;19.17;;;2.10;99.90;;;;;;6093844;23;20448;-77
2021/01/09 08:44:49;;;;;;;21.00;19.10;;;2.00;99.90;;;;;;6095443;23;20394;-77
2021/01/09 08:47:18;;;;;;;21.67;19.57;;;2.00;99.90;;;;;;6095361;23;20469;-77
2021/01/09 08:49:49;;;;;;;21.67;19.57;;;1.90;99.90;;;;;;6093660;23;20428;-76
2021/01/09 08:52:20;;;;;;;21.87;19.63;;;1.90;99.90;;;;;;6095160;23;20710;-77
2021/01/09 08:54:47;;;;;;;20.40;18.60;;;1.90;99.90;;;;;;6093557;23;20411;-76
2021/01/09 08:57:14;;;;;;;20.43;18.53;;;2.00;99.90;;;;;;6093421;23;20440;-76
2021/01/09 08:59:41;;;;;;;21.50;19.40;;;2.10;99.90;;;;;;6093473;23;20875;-77
2021/01/09 09:02:12;;;;;;;21.03;18.90;;;2.00;99.90;;;;;;6096252;23;20452;-77
2021/01/09 09:04:42;;;;;;;21.47;19.57;;;2.10;99.90;;;;;;6094247;23;20413;-77
2021/01/09 09:07:10;;;;;;;19.87;18.07;;;2.10;99.90;;;;;;6094306;23;20421;-77
2021/01/09 09:09:41;;;;;;;19.20;17.50;;;2.20;99.90;;;;;;6095790;23;20379;-77
2021/01/09 09:12:10;;;;;;;20.30;18.50;;;2.10;99.90;;;;;;6094617;23;20413;-77
2021/01/09 09:14:36;;;;;;;19.73;17.73;;;2.10;99.90;;;;;;6096310;23;20398;-77
2021/01/09 09:17:04;;;;;;;21.03;18.87;;;2.10;99.90;;;;;;6096233;23;20838;-77
2021/01/09 09:19:36;;;;;;;20.30;18.37;;;2.20;99.90;;;;;;6094001;23;20410;-76
2021/01/09 09:22:04;;;;;;;20.57;18.67;;;2.30;99.90;;;;;;6095689;23;20944;-81
2021/01/09 09:24:40;;;;;;;20.33;18.20;;;2.40;99.90;;;;;;6094137;23;20393;-78
2021/01/09 09:27:20;;;;;;;22.53;20.37;;;2.40;99.90;;;;;;6094333;23;20419;-80
2021/01/09 09:29:47;;;;;;;21.13;18.97;;;2.30;99.90;;;;;;6095679;23;20409;-77
2021/01/09 09:32:23;;;;;;;21.50;19.50;;;2.30;99.90;;;;;;6093776;23;20741;-77
2021/01/09 09:34:50;;;;;;;21.27;19.33;;;2.30;99.90;;;;;;6093625;23;20416;-76
2021/01/09 09:37:17;;;;;;;20.13;18.07;;;2.40;99.90;;;;;;6092355;23;20446;-75
2021/01/09 09:39:43;;;;;;;20.93;18.83;;;2.40;99.90;;;;;;6092837;23;20905;-76
2021/01/09 09:42:10;;;;;;;21.40;19.30;;;2.40;99.90;;;;;;6094342;23;20395;-77
2021/01/09 09:44:38;;;;;;;22.90;20.60;;;2.50;99.90;;;;;;6094626;23;20424;-77
2021/01/09 09:47:06;;;;;;;22.33;19.73;;;2.50;99.90;;;;;;6093565;23;20461;-76
2021/01/09 09:49:35;;;;;;;21.70;19.60;;;2.50;99.90;;;;;;6095878;23;20709;-78
2021/01/09 09:52:02;;;;;;;21.10;19.10;;;2.60;99.90;;;;;;6095412;23;20428;-78
2021/01/09 09:54:30;;;;;;;22.27;19.60;;;2.70;99.90;;;;;;6096044;23;20925;-78
2021/01/09 09:56:57;;;;;;;22.70;20.33;;;2.80;99.90;;;;;;6097505;23;20996;-77
2021/01/09 09:59:28;;;;;;;23.23;20.43;;;2.80;99.90;;;;;;6095745;23;20474;-77
2021/01/09 10:01:59;;;;;;;21.90;19.67;;;2.80;99.90;;;;;;6095928;23;20882;-78
2021/01/09 10:04:27;;;;;;;21.53;19.37;;;3.00;99.90;;;;;;6095424;23;20416;-78
2021/01/09 10:06:53;;;;;;;17.37;13.40;;;3.10;99.90;;;;;;6094630;23;20518;-78
2021/01/09 10:09:21;;;;;;;21.30;18.90;;;3.10;99.90;;;;;;6097346;23;20424;-78
2021/01/09 10:11:49;;;;;;;18.07;16.17;;;3.20;99.90;;;;;;6096335;23;20422;-78
2021/01/09 10:14:15;;;;;;;20.97;18.87;;;3.30;99.90;;;;;;6095404;23;20410;-78
2021/01/09 10:16:42;;;;;;;19.40;17.40;;;3.40;99.90;;;;;;6094933;23;20485;-78
2021/01/09 10:19:09;;;;;;;19.83;17.83;;;3.50;99.90;;;;;;6096097;23;20418;-78
2021/01/09 10:21:36;;;;;;;20.00;15.43;;;3.40;99.90;;;;;;6095653;23;20473;-78
2021/01/09 10:24:03;;;;;;;22.93;19.10;;;3.30;99.90;;;;;;6094865;23;20908;-78
2021/01/09 10:26:31;;;;;;;18.67;13.80;;;3.30;99.90;;;;;;6096832;23;20449;-77
2021/01/09 10:29:01;;;;;;;19.00;14.53;;;3.40;99.90;;;;;;6095817;23;20465;-78
2021/01/09 10:31:32;;;;;;;24.57;21.97;;;3.50;99.90;;;;;;6094247;23;20414;-78
2021/01/09 10:33:58;;;;;;;22.90;20.60;;;3.70;99.90;;;;;;6096425;23;20393;-78
2021/01/09 10:36:27;;;;;;;21.33;14.27;;;3.90;99.90;;;;;;6096154;23;20761;-78
2021/01/09 10:38:53;;;;;;;23.27;20.70;;;4.00;99.90;;;;;;6096222;23;20413;-78
2021/01/09 10:41:19;;;;;;;21.90;19.50;;;4.10;99.90;;;;;;6096992;23;20729;-78
2021/01/09 10:43:46;;;;;;;22.87;20.57;;;4.20;99.90;;;;;;6096749;23;20180;-78
2021/01/09 10:46:21;;;;;;;24.13;21.73;;;4.20;99.90;;;;;;6096714;23;20402;-78
2021/01/09 10:48:48;;;;;;;22.20;17.60;;;4.30;99.90;;;;;;6095210;23;20197;-78
2021/01/09 10:51:15;;;;;;;20.83;17.47;;;4.20;99.90;;;;;;6094970;23;20425;-78
2021/01/09 10:53:42;;;;;;;21.27;17.30;;;4.10;99.90;;;;;;6096580;23;20174;-78
2021/01/09 10:56:08;;;;;;;19.70;16.23;;;4.10;99.90;;;;;;6095010;23;21044;-78
2021/01/09 10:58:34;;;;;;;20.20;16.40;;;4.20;99.90;;;;;;6095936;23;20417;-78
2021/01/09 11:01:00;;;;;;;18.40;15.60;;;4.20;99.90;;;;;;6096950;23;20450;-78
2021/01/09 11:03:28;;;;;;;21.87;16.80;;;4.20;99.90;;;;;;6097019;23;20181;-78
2021/01/09 11:05:54;;;;;;;20.70;16.77;;;4.20;99.90;;;;;;6097129;23;20386;-77
2021/01/09 11:08:21;;;;;;;22.10;18.20;;;4.20;99.90;;;;;;6095403;23;20213;-79
2021/01/09 11:10:47;;;;;;;18.10;13.60;;;4.20;99.90;;;;;;6095783;23;20663;-78
2021/01/09 11:13:13;;;;;;;17.87;13.77;;;3.90;99.90;;;;;;6095760;23;20424;-85
2021/01/09 11:15:43;;;;;;;22.30;20.17;;;3.80;99.90;;;;;;6096076;23;20568;-78
2021/01/09 11:18:10;;;;;;;21.80;19.77;;;3.50;99.90;;;;;;6095517;23;20531;-77
2021/01/09 11:20:37;;;;;;;21.07;19.07;;;3.30;99.90;;;;;;6094935;23;20412;-78
2021/01/09 11:23:03;;;;;;;24.67;22.17;;;3.40;99.90;;;;;;6096551;23;20537;-77
2021/01/09 11:25:29;;;;;;;23.00;20.50;;;3.30;99.90;;;;;;6094318;23;20441;-78
2021/01/09 11:27:55;;;;;;;24.87;21.00;;;3.40;99.90;;;;;;6096991;23;20415;-79
2021/01/09 11:30:22;;;;;;;22.63;20.43;;;3.50;99.90;;;;;;6096008;23;20396;-78
2021/01/09 11:32:48;;;;;;;21.77;19.57;;;3.50;99.90;;;;;;6094077;23;20421;-78
2021/01/09 11:35:14;;;;;;;21.50;19.20;;;3.60;99.90;;;;;;6095069;23;20417;-78
2021/01/09 11:37:41;;;;;;;21.30;19.03;;;3.40;99.90;;;;;;6096953;23;20928;-78
2021/01/09 11:40:08;;;;;;;22.17;18.33;;;3.50;99.90;;;;;;6095691;23;20426;-78
2021/01/09 11:42:34;;;;;;;20.47;18.23;;;3.60;99.90;;;;;;6095280;23;20414;-78
2021/01/09 11:45:01;;;;;;;20.47;18.47;;;3.80;99.90;;;;;;6097058;23;20457;-78
2021/01/09 11:47:27;;;;;;;15.00;11.83;;;3.90;99.90;;;;;;6096739;23;20406;-78
2021/01/09 11:49:53;;;;;;;18.20;16.20;;;4.10;99.90;;;;;;6096869;23;20422;-79
2021/01/09 11:52:20;;;;;;;13.97;10.87;;;4.10;99.90;;;;;;6095744;23;20417;-78
2021/01/09 11:54:47;;;;;;;19.03;17.20;;;4.00;99.90;;;;;;6095090;23;20422;-78
2021/01/09 11:57:13;;;;;;;20.13;18.07;;;4.00;99.90;;;;;;6095025;23;20198;-78
2021/01/09 11:59:39;;;;;;;21.00;18.70;;;4.10;99.90;;;;;;6096263;23;20386;-78
2021/01/09 12:02:07;;;;;;;19.07;17.17;;;4.20;99.90;;;;;;6096689;23;20912;-78
2021/01/09 12:04:33;;;;;;;14.33;10.40;;;4.30;99.90;;;;;;6096779;23;20387;-79
2021/01/09 12:07:00;;;;;;;18.03;13.43;;;4.20;99.90;;;;;;6096546;23;20908;-78
2021/01/09 12:09:26;;;;;;;21.20;19.00;;;4.10;99.90;;;;;;6094400;23;20446;-78
2021/01/09 12:11:56;;;;;;;14.77;11.47;;;3.70;99.90;;;;;;6095819;23;20187;-79
2021/01/09 12:14:24;;;;;;;20.23;18.23;;;3.60;99.90;;;;;;6094663;23;20425;-78
2021/01/09 12:16:51;;;;;;;20.57;18.43;;;3.50;99.90;;;;;;6095556;23;20441;-80
2021/01/09 12:19:17;;;;;;;20.43;18.53;;;3.40;99.90;;;;;;6094746;23;20432;-76
2021/01/09 12:21:43;;;;;;;20.07;18.17;;;3.20;99.90;;;;;;6096000;23;20390;-76
2021/01/09 12:24:11;;;;;;;20.20;18.00;;;3.10;99.90;;;;;;6094517;23;20420;-76
2021/01/09 12:26:37;;;;;;;21.73;19.37;;;3.10;99.90;;;;;;6095651;23;20397;-76
2021/01/09 12:29:04;;;;;;;21.47;19.27;;;3.00;99.90;;;;;;6094822;23;20480;-76
2021/01/09 12:31:32;;;;;;;20.70;18.60;;;2.90;99.90;;;;;;6096272;23;20424;-79
2021/01/09 12:33:59;;;;;;;20.87;18.87;;;2.90;99.90;;;;;;6096792;23;20410;-77
2021/01/09 12:36:25;;;;;;;19.93;18.00;;;3.00;99.90;;;;;;6099101;23;20433;-79
2021/01/09 12:38:51;;;;;;;19.77;17.73;;;3.10;99.90;;;;;;6095267;23;20445;-77